sensor_id;sensor_type;location;lat;lon;timestamp;temperature;humidity
40816;DHT22;26535;48.788;9.214;2023-09-18T00:02:12;20.60;93.40
40816;DHT22;26535;48.788;9.214;2023-09-18T00:04:38;20.60;93.50
40816;DHT22;26535;48.788;9.214;2023-09-18T00:07:04;20.60;93.40
40816;DHT22;26535;48.788;9.214;2023-09-18T00:09:36;20.60;93.10
40816;DHT22;26535;48.788;9.214;2023-09-18T00:12:08;20.50;92.80
40816;DHT22;26535;48.788;9.214;2023-09-18T00:14:36;20.60;93.20
40816;DHT22;26535;48.788;9.214;2023-09-18T00:17:02;20.60;92.70
40816;DHT22;26535;48.788;9.214;2023-09-18T00:19:30;20.60;93.20
40816;DHT22;26535;48.788;9.214;2023-09-18T00:21:58;20.50;93.10
40816;DHT22;26535;48.788;9.214;2023-09-18T00:24:27;20.50;93.30
40816;DHT22;26535;48.788;9.214;2023-09-18T00:26:52;20.50;92.90
40816;DHT22;26535;48.788;9.214;2023-09-18T00:29:19;20.60;92.90
40816;DHT22;26535;48.788;9.214;2023-09-18T05:58:17;20.50;99.90
40816;DHT22;26535;48.788;9.214;2023-09-18T06:04:10;20.60;99.90
40816;DHT22;26535;48.788;9.214;2023-09-18T06:06:42;20.60;99.90
40816;DHT22;26535;48.788;9.214;2023-09-18T06:09:33;20.70;99.90
40816;DHT22;26535;48.788;9.214;2023-09-18T06:12:06;20.60;99.90
40816;DHT22;26535;48.788;9.214;2023-09-18T06:14:32;20.60;99.90
40816;DHT22;26535;48.788;9.214;2023-09-18T06:17:25;20.50;99.90
40816;DHT22;26535;48.788;9.214;2023-09-18T06:23:32;20.40;99.90
40816;DHT22;26535;48.788;9.214;2023-09-18T06:26:32;20.40;99.90
40816;DHT22;26535;48.788;9.214;2023-09-18T06:30:09;20.40;99.90
40816;DHT22;26535;48.788;9.214;2023-09-18T06:32:37;20.30;99.90
40816;DHT22;26535;48.788;9.214;2023-09-18T06:35:03;20.30;99.90
40816;DHT22;26535;48.788;9.214;2023-09-18T06:37:29;20.30;99.90
40816;DHT22;26535;48.788;9.214;2023-09-18T06:39:58;20.20;99.90
40816;DHT22;26535;48.788;9.214;2023-09-18T06:42:23;20.20;99.90
40816;DHT22;26535;48.788;9.214;2023-09-18T06:44:56;20.20;99.90
40816;DHT22;26535;48.788;9.214;2023-09-18T06:47:22;20.20;99.90
40816;DHT22;26535;48.788;9.214;2023-09-18T06:50:07;20.20;99.90
40816;DHT22;26535;48.788;9.214;2023-09-18T06:52:32;20.20;99.90
40816;DHT22;26535;48.788;9.214;2023-09-18T06:55:01;20.10;99.90
40816;DHT22;26535;48.788;9.214;2023-09-18T06:57:27;20.20;99.90
40816;DHT22;26535;48.788;9.214;2023-09-18T07:00:36;20.20;99.90
40816;DHT22;26535;48.788;9.214;2023-09-18T07:03:02;20.20;99.90
40816;DHT22;26535;48.788;9.214;2023-09-18T07:05:37;20.20;99.90
40816;DHT22;26535;48.788;9.214;2023-09-18T07:08:12;20.30;99.90
40816;DHT22;26535;48.788;9.214;2023-09-18T07:10:44;20.40;99.90
40816;DHT22;26535;48.788;9.214;2023-09-18T07:13:58;20.50;99.90
40816;DHT22;26535;48.788;9.214;2023-09-18T07:16:30;20.70;99.90
40816;DHT22;26535;48.788;9.214;2023-09-18T07:18:55;20.80;99.90
40816;DHT22;26535;48.788;9.214;2023-09-18T07:25:19;21.10;99.90
40816;DHT22;26535;48.788;9.214;2023-09-18T07:27:44;21.40;99.90
40816;DHT22;26535;48.788;9.214;2023-09-18T07:30:20;21.50;99.90
40816;DHT22;26535;48.788;9.214;2023-09-18T07:33:13;21.50;99.80
40816;DHT22;26535;48.788;9.214;2023-09-18T07:35:47;21.50;98.90
40816;DHT22;26535;48.788;9.214;2023-09-18T07:38:14;21.60;99.00
40816;DHT22;26535;48.788;9.214;2023-09-18T07:40:46;21.60;98.40
40816;DHT22;26535;48.788;9.214;2023-09-18T07:43:13;21.60;97.70
40816;DHT22;26535;48.788;9.214;2023-09-18T07:45:44;21.70;97.20
40816;DHT22;26535;48.788;9.214;2023-09-18T07:48:26;21.80;97.00
40816;DHT22;26535;48.788;9.214;2023-09-18T07:51:13;21.90;96.90
40816;DHT22;26535;48.788;9.214;2023-09-18T07:53:43;22.00;97.20
40816;DHT22;26535;48.788;9.214;2023-09-18T07:56:24;22.10;95.70
40816;DHT22;26535;48.788;9.214;2023-09-18T07:59:08;22.20;95.80
40816;DHT22;26535;48.788;9.214;2023-09-18T08:01:50;22.40;95.10
40816;DHT22;26535;48.788;9.214;2023-09-18T08:04:25;22.50;94.20
40816;DHT22;26535;48.788;9.214;2023-09-18T08:07:08;22.60;94.40
40816;DHT22;26535;48.788;9.214;2023-09-18T08:09:43;22.60;93.80
40816;DHT22;26535;48.788;9.214;2023-09-18T08:12:09;22.70;94.20
40816;DHT22;26535;48.788;9.214;2023-09-18T08:14:55;22.70;93.70
40816;DHT22;26535;48.788;9.214;2023-09-18T08:21:12;22.50;92.90
40816;DHT22;26535;48.788;9.214;2023-09-18T08:23:40;22.40;93.60
40816;DHT22;26535;48.788;9.214;2023-09-18T08:26:06;22.30;93.90
40816;DHT22;26535;48.788;9.214;2023-09-18T08:28:33;22.20;93.80
40816;DHT22;26535;48.788;9.214;2023-09-18T08:31:01;22.20;93.90
40816;DHT22;26535;48.788;9.214;2023-09-18T08:33:33;22.10;94.00
40816;DHT22;26535;48.788;9.214;2023-09-18T08:36:06;22.00;93.50
40816;DHT22;26535;48.788;9.214;2023-09-18T08:38:35;21.90;94.30
40816;DHT22;26535;48.788;9.214;2023-09-18T08:41:00;21.90;94.90
40816;DHT22;26535;48.788;9.214;2023-09-18T08:43:26;21.80;95.10
40816;DHT22;26535;48.788;9.214;2023-09-18T08:45:56;21.80;95.40
40816;DHT22;26535;48.788;9.214;2023-09-18T08:48:33;21.70;95.70
40816;DHT22;26535;48.788;9.214;2023-09-18T08:51:06;21.60;95.40
40816;DHT22;26535;48.788;9.214;2023-09-18T08:53:40;21.40;95.70
40816;DHT22;26535;48.788;9.214;2023-09-18T08:56:09;21.30;96.10
40816;DHT22;26535;48.788;9.214;2023-09-18T08:58:40;21.20;96.70
40816;DHT22;26535;48.788;9.214;2023-09-18T09:01:09;21.30;97.90
40816;DHT22;26535;48.788;9.214;2023-09-18T09:03:39;21.30;98.10
40816;DHT22;26535;48.788;9.214;2023-09-18T09:06:09;21.10;98.40
40816;DHT22;26535;48.788;9.214;2023-09-18T09:08:36;21.10;98.50
40816;DHT22;26535;48.788;9.214;2023-09-18T09:11:03;21.00;98.70
40816;DHT22;26535;48.788;9.214;2023-09-18T09:13:29;20.80;99.00
40816;DHT22;26535;48.788;9.214;2023-09-18T09:15:56;20.80;99.40
40816;DHT22;26535;48.788;9.214;2023-09-18T09:18:23;20.80;98.90
40816;DHT22;26535;48.788;9.214;2023-09-18T09:21:08;20.70;98.90
40816;DHT22;26535;48.788;9.214;2023-09-18T09:23:48;20.80;99.50
40816;DHT22;26535;48.788;9.214;2023-09-18T09:26:23;20.80;99.90
40816;DHT22;26535;48.788;9.214;2023-09-18T09:28:49;20.80;99.90
40816;DHT22;26535;48.788;9.214;2023-09-18T09:31:29;20.60;99.90
40816;DHT22;26535;48.788;9.214;2023-09-18T09:33:56;20.60;99.90
40816;DHT22;26535;48.788;9.214;2023-09-18T09:36:23;20.70;99.90
40816;DHT22;26535;48.788;9.214;2023-09-18T09:38:56;20.80;99.90
40816;DHT22;26535;48.788;9.214;2023-09-18T09:41:25;20.80;99.90
40816;DHT22;26535;48.788;9.214;2023-09-18T09:43:54;20.80;99.90
40816;DHT22;26535;48.788;9.214;2023-09-18T09:46:21;20.90;99.90
40816;DHT22;26535;48.788;9.214;2023-09-18T09:49:05;21.00;99.90
40816;DHT22;26535;48.788;9.214;2023-09-18T09:51:32;21.10;99.90
40816;DHT22;26535;48.788;9.214;2023-09-18T09:54:00;21.10;99.90
40816;DHT22;26535;48.788;9.214;2023-09-18T09:56:44;21.10;99.90
40816;DHT22;26535;48.788;9.214;2023-09-18T09:59:11;21.10;99.90
40816;DHT22;26535;48.788;9.214;2023-09-18T10:01:39;20.90;99.90
40816;DHT22;26535;48.788;9.214;2023-09-18T10:04:11;20.90;99.90
40816;DHT22;26535;48.788;9.214;2023-09-18T10:06:41;20.80;99.90
40816;DHT22;26535;48.788;9.214;2023-09-18T10:09:08;20.90;99.90
40816;DHT22;26535;48.788;9.214;2023-09-18T10:11:41;21.10;99.90
40816;DHT22;26535;48.788;9.214;2023-09-18T10:14:16;21.10;99.90
40816;DHT22;26535;48.788;9.214;2023-09-18T10:16:47;21.10;99.90
40816;DHT22;26535;48.788;9.214;2023-09-18T10:19:26;21.10;99.90
40816;DHT22;26535;48.788;9.214;2023-09-18T10:22:06;21.00;99.90
40816;DHT22;26535;48.788;9.214;2023-09-18T10:24:40;20.80;99.90
40816;DHT22;26535;48.788;9.214;2023-09-18T10:27:12;20.80;99.90
40816;DHT22;26535;48.788;9.214;2023-09-18T10:29:41;20.70;99.90
40816;DHT22;26535;48.788;9.214;2023-09-18T10:32:08;20.70;99.90
40816;DHT22;26535;48.788;9.214;2023-09-18T10:34:40;20.70;99.90
40816;DHT22;26535;48.788;9.214;2023-09-18T10:37:08;20.80;99.90
40816;DHT22;26535;48.788;9.214;2023-09-18T10:39:39;20.80;99.90
40816;DHT22;26535;48.788;9.214;2023-09-18T10:42:21;20.80;99.90
40816;DHT22;26535;48.788;9.214;2023-09-18T10:44:57;20.70;99.90
40816;DHT22;26535;48.788;9.214;2023-09-18T10:47:32;20.60;99.90
40816;DHT22;26535;48.788;9.214;2023-09-18T10:50:09;20.60;99.90
40816;DHT22;26535;48.788;9.214;2023-09-18T10:52:35;20.60;99.90
40816;DHT22;26535;48.788;9.214;2023-09-18T10:55:02;20.60;99.90
40816;DHT22;26535;48.788;9.214;2023-09-18T10:57:33;20.70;99.90
40816;DHT22;26535;48.788;9.214;2023-09-18T11:00:01;20.90;99.90
40816;DHT22;26535;48.788;9.214;2023-09-18T11:02:40;20.90;99.90
40816;DHT22;26535;48.788;9.214;2023-09-18T11:05:06;20.90;99.90
40816;DHT22;26535;48.788;9.214;2023-09-18T11:07:32;20.90;99.90
40816;DHT22;26535;48.788;9.214;2023-09-18T11:10:27;20.90;99.90
40816;DHT22;26535;48.788;9.214;2023-09-18T11:12:52;20.90;99.90
40816;DHT22;26535;48.788;9.214;2023-09-18T11:15:31;20.90;99.90
40816;DHT22;26535;48.788;9.214;2023-09-18T11:18:18;20.80;99.90
40816;DHT22;26535;48.788;9.214;2023-09-18T11:21:08;20.90;99.90
40816;DHT22;26535;48.788;9.214;2023-09-18T11:23:36;20.90;99.90
40816;DHT22;26535;48.788;9.214;2023-09-18T11:26:08;21.00;99.90
40816;DHT22;26535;48.788;9.214;2023-09-18T11:28:34;20.90;99.90
40816;DHT22;26535;48.788;9.214;2023-09-18T11:31:00;20.90;99.90
40816;DHT22;26535;48.788;9.214;2023-09-18T11:33:34;21.00;99.90
40816;DHT22;26535;48.788;9.214;2023-09-18T11:36:08;20.90;99.90
40816;DHT22;26535;48.788;9.214;2023-09-18T11:38:55;20.90;99.90
40816;DHT22;26535;48.788;9.214;2023-09-18T11:41:25;21.00;99.90
40816;DHT22;26535;48.788;9.214;2023-09-18T11:43:52;21.00;99.90
40816;DHT22;26535;48.788;9.214;2023-09-18T11:46:19;20.90;99.90
40816;DHT22;26535;48.788;9.214;2023-09-18T11:48:47;20.80;99.90
40816;DHT22;26535;48.788;9.214;2023-09-18T11:51:22;20.90;99.90
40816;DHT22;26535;48.788;9.214;2023-09-18T11:53:51;21.00;99.90
40816;DHT22;26535;48.788;9.214;2023-09-18T11:56:21;21.10;99.90
40816;DHT22;26535;48.788;9.214;2023-09-18T11:58:51;21.10;99.90
40816;DHT22;26535;48.788;9.214;2023-09-18T12:01:19;21.30;99.90
40816;DHT22;26535;48.788;9.214;2023-09-18T12:03:45;21.20;99.90
40816;DHT22;26535;48.788;9.214;2023-09-18T12:06:13;21.20;99.90
40816;DHT22;26535;48.788;9.214;2023-09-18T12:08:40;21.10;99.90
40816;DHT22;26535;48.788;9.214;2023-09-18T12:11:06;21.00;99.90
40816;DHT22;26535;48.788;9.214;2023-09-18T12:13:32;21.00;99.90
40816;DHT22;26535;48.788;9.214;2023-09-18T12:16:03;21.20;99.90
40816;DHT22;26535;48.788;9.214;2023-09-18T12:18:34;21.20;99.90
40816;DHT22;26535;48.788;9.214;2023-09-18T12:21:02;21.30;99.90
40816;DHT22;26535;48.788;9.214;2023-09-18T12:23:37;21.30;99.90
40816;DHT22;26535;48.788;9.214;2023-09-18T12:26:03;21.40;99.90
40816;DHT22;26535;48.788;9.214;2023-09-18T12:28:29;21.30;99.90
40816;DHT22;26535;48.788;9.214;2023-09-18T12:30:56;21.20;99.90
40816;DHT22;26535;48.788;9.214;2023-09-18T12:33:25;21.20;99.90
40816;DHT22;26535;48.788;9.214;2023-09-18T12:35:52;21.20;99.90
40816;DHT22;26535;48.788;9.214;2023-09-18T12:38:19;21.40;99.90
40816;DHT22;26535;48.788;9.214;2023-09-18T12:40:49;21.50;99.90
40816;DHT22;26535;48.788;9.214;2023-09-18T12:43:15;21.60;99.90
40816;DHT22;26535;48.788;9.214;2023-09-18T12:45:42;21.90;99.90
40816;DHT22;26535;48.788;9.214;2023-09-18T12:48:09;22.30;99.60
40816;DHT22;26535;48.788;9.214;2023-09-18T12:50:36;22.80;98.50
40816;DHT22;26535;48.788;9.214;2023-09-18T12:53:13;23.20;97.40
40816;DHT22;26535;48.788;9.214;2023-09-18T12:55:39;23.90;95.80
40816;DHT22;26535;48.788;9.214;2023-09-18T12:58:06;24.70;94.70
40816;DHT22;26535;48.788;9.214;2023-09-18T13:00:34;25.70;92.30
40816;DHT22;26535;48.788;9.214;2023-09-18T13:10:15;26.10;90.40
40816;DHT22;26535;48.788;9.214;2023-09-18T13:12:49;26.00;90.60
40816;DHT22;26535;48.788;9.214;2023-09-18T13:15:26;26.00;88.90
40816;DHT22;26535;48.788;9.214;2023-09-18T13:21:48;26.60;87.20
40816;DHT22;26535;48.788;9.214;2023-09-18T13:25:09;26.60;86.70
40816;DHT22;26535;48.788;9.214;2023-09-18T13:28:10;27.30;83.80
40816;DHT22;26535;48.788;9.214;2023-09-18T13:30:50;27.60;82.70
40816;DHT22;26535;48.788;9.214;2023-09-18T13:33:21;27.20;83.30
40816;DHT22;26535;48.788;9.214;2023-09-18T13:36:22;26.50;83.40
40816;DHT22;26535;48.788;9.214;2023-09-18T13:42:48;29.00;77.60
40816;DHT22;26535;48.788;9.214;2023-09-18T13:45:56;30.50;73.80
40816;DHT22;26535;48.788;9.214;2023-09-18T13:48:30;30.30;70.80
40816;DHT22;26535;48.788;9.214;2023-09-18T13:51:14;30.20;70.90
40816;DHT22;26535;48.788;9.214;2023-09-18T13:53:46;29.50;72.60
40816;DHT22;26535;48.788;9.214;2023-09-18T13:57:06;28.90;72.70
40816;DHT22;26535;48.788;9.214;2023-09-18T13:59:36;27.50;75.00
40816;DHT22;26535;48.788;9.214;2023-09-18T14:02:24;26.50;78.10
40816;DHT22;26535;48.788;9.214;2023-09-18T14:05:17;26.60;78.60
40816;DHT22;26535;48.788;9.214;2023-09-18T14:07:43;26.20;78.70
40816;DHT22;26535;48.788;9.214;2023-09-18T14:10:10;26.20;79.10
40816;DHT22;26535;48.788;9.214;2023-09-18T14:13:06;26.10;79.00
40816;DHT22;26535;48.788;9.214;2023-09-18T14:16:27;25.50;81.40
40816;DHT22;26535;48.788;9.214;2023-09-18T14:18:52;25.30;81.00
40816;DHT22;26535;48.788;9.214;2023-09-18T14:21:53;25.20;81.60
40816;DHT22;26535;48.788;9.214;2023-09-18T14:24:19;25.40;80.30
40816;DHT22;26535;48.788;9.214;2023-09-18T14:26:53;25.50;80.40
40816;DHT22;26535;48.788;9.214;2023-09-18T14:29:52;25.80;80.80
40816;DHT22;26535;48.788;9.214;2023-09-18T14:32:55;26.40;79.80
40816;DHT22;26535;48.788;9.214;2023-09-18T14:35:38;26.70;77.80
40816;DHT22;26535;48.788;9.214;2023-09-18T14:38:16;26.80;77.50
40816;DHT22;26535;48.788;9.214;2023-09-18T14:40:42;26.80;77.70
40816;DHT22;26535;48.788;9.214;2023-09-18T14:43:30;27.20;77.90
40816;DHT22;26535;48.788;9.214;2023-09-18T14:46:08;27.50;75.60
40816;DHT22;26535;48.788;9.214;2023-09-18T14:48:39;28.30;73.20
40816;DHT22;26535;48.788;9.214;2023-09-18T14:51:13;27.70;74.00
40816;DHT22;26535;48.788;9.214;2023-09-18T14:53:46;28.50;72.90
40816;DHT22;26535;48.788;9.214;2023-09-18T14:57:17;29.40;70.20
40816;DHT22;26535;48.788;9.214;2023-09-18T15:00:16;31.50;66.00
40816;DHT22;26535;48.788;9.214;2023-09-18T15:02:45;32.70;63.00
40816;DHT22;26535;48.788;9.214;2023-09-18T15:08:08;33.70;60.60
40816;DHT22;26535;48.788;9.214;2023-09-18T15:10:57;33.00;60.50
40816;DHT22;26535;48.788;9.214;2023-09-18T15:13:26;31.70;63.00
40816;DHT22;26535;48.788;9.214;2023-09-18T15:15:54;30.40;65.90
40816;DHT22;26535;48.788;9.214;2023-09-18T15:18:20;29.70;66.40
40816;DHT22;26535;48.788;9.214;2023-09-18T15:24:51;27.80;71.10
40816;DHT22;26535;48.788;9.214;2023-09-18T15:27:23;28.10;71.30
40816;DHT22;26535;48.788;9.214;2023-09-18T15:29:49;28.60;69.50
40816;DHT22;26535;48.788;9.214;2023-09-18T15:33:18;28.30;69.90
40816;DHT22;26535;48.788;9.214;2023-09-18T15:35:49;27.90;71.50
40816;DHT22;26535;48.788;9.214;2023-09-18T15:38:33;29.20;69.80
40816;DHT22;26535;48.788;9.214;2023-09-18T15:41:27;30.70;67.80
40816;DHT22;26535;48.788;9.214;2023-09-18T15:43:53;31.70;64.00
40816;DHT22;26535;48.788;9.214;2023-09-18T15:46:19;32.40;62.70
40816;DHT22;26535;48.788;9.214;2023-09-18T15:48:44;33.00;61.90
40816;DHT22;26535;48.788;9.214;2023-09-18T15:51:44;34.50;59.80
40816;DHT22;26535;48.788;9.214;2023-09-18T15:54:13;35.10;58.00
40816;DHT22;26535;48.788;9.214;2023-09-18T16:03:26;34.20;57.70
40816;DHT22;26535;48.788;9.214;2023-09-18T16:06:20;34.40;56.50
40816;DHT22;26535;48.788;9.214;2023-09-18T16:09:17;33.60;58.70
40816;DHT22;26535;48.788;9.214;2023-09-18T16:11:46;31.30;60.80
40816;DHT22;26535;48.788;9.214;2023-09-18T16:14:57;30.20;64.00
40816;DHT22;26535;48.788;9.214;2023-09-18T16:23:32;27.80;69.30
40816;DHT22;26535;48.788;9.214;2023-09-18T16:26:08;26.40;72.70
40816;DHT22;26535;48.788;9.214;2023-09-18T16:28:37;25.80;75.20
40816;DHT22;26535;48.788;9.214;2023-09-18T16:31:10;25.30;75.80
40816;DHT22;26535;48.788;9.214;2023-09-18T16:33:36;24.70;78.10
40816;DHT22;26535;48.788;9.214;2023-09-18T16:36:23;24.50;78.90
40816;DHT22;26535;48.788;9.214;2023-09-18T16:38:50;24.40;79.50
40816;DHT22;26535;48.788;9.214;2023-09-18T16:41:19;24.20;80.00
40816;DHT22;26535;48.788;9.214;2023-09-18T16:44:05;24.10;80.80
40816;DHT22;26535;48.788;9.214;2023-09-18T16:46:31;24.00;80.60
40816;DHT22;26535;48.788;9.214;2023-09-18T16:49:01;23.90;82.00
40816;DHT22;26535;48.788;9.214;2023-09-18T16:51:27;23.80;82.40
40816;DHT22;26535;48.788;9.214;2023-09-18T16:53:53;23.70;82.20
40816;DHT22;26535;48.788;9.214;2023-09-18T16:56:19;23.60;83.30
40816;DHT22;26535;48.788;9.214;2023-09-18T16:58:45;23.50;83.60
40816;DHT22;26535;48.788;9.214;2023-09-18T17:01:23;23.30;83.70
40816;DHT22;26535;48.788;9.214;2023-09-18T17:04:26;23.20;83.80
40816;DHT22;26535;48.788;9.214;2023-09-18T17:06:54;23.00;84.30
40816;DHT22;26535;48.788;9.214;2023-09-18T17:09:52;22.90;85.50
40816;DHT22;26535;48.788;9.214;2023-09-18T17:12:27;22.70;85.50
40816;DHT22;26535;48.788;9.214;2023-09-18T17:14:56;22.60;85.80
40816;DHT22;26535;48.788;9.214;2023-09-18T17:17:23;22.50;86.00
40816;DHT22;26535;48.788;9.214;2023-09-18T17:19:57;22.40;86.30
40816;DHT22;26535;48.788;9.214;2023-09-18T17:22:23;22.20;86.50
40816;DHT22;26535;48.788;9.214;2023-09-18T17:24:49;22.20;87.10
40816;DHT22;26535;48.788;9.214;2023-09-18T17:27:15;22.10;87.70
40816;DHT22;26535;48.788;9.214;2023-09-18T17:29:43;22.10;87.60
40816;DHT22;26535;48.788;9.214;2023-09-18T17:32:12;22.10;88.00
40816;DHT22;26535;48.788;9.214;2023-09-18T17:34:43;22.00;88.40
40816;DHT22;26535;48.788;9.214;2023-09-18T17:37:16;22.00;88.30
40816;DHT22;26535;48.788;9.214;2023-09-18T17:39:54;21.90;88.70
40816;DHT22;26535;48.788;9.214;2023-09-18T17:42:33;21.90;89.10
40816;DHT22;26535;48.788;9.214;2023-09-18T17:45:02;21.80;89.80
40816;DHT22;26535;48.788;9.214;2023-09-18T17:47:38;21.70;90.10
40816;DHT22;26535;48.788;9.214;2023-09-18T17:50:10;21.60;90.20
40816;DHT22;26535;48.788;9.214;2023-09-18T17:52:40;21.50;90.30
40816;DHT22;26535;48.788;9.214;2023-09-18T17:55:15;21.50;90.40
40816;DHT22;26535;48.788;9.214;2023-09-18T18:00:29;21.30;90.60
40816;DHT22;26535;48.788;9.214;2023-09-18T18:03:01;21.30;90.80
40816;DHT22;26535;48.788;9.214;2023-09-18T18:05:27;21.20;91.00
40816;DHT22;26535;48.788;9.214;2023-09-18T18:07:56;21.20;91.10
40816;DHT22;26535;48.788;9.214;2023-09-18T18:10:25;21.10;91.30
40816;DHT22;26535;48.788;9.214;2023-09-18T18:13:00;21.10;91.50
40816;DHT22;26535;48.788;9.214;2023-09-18T18:15:38;21.10;91.60
40816;DHT22;26535;48.788;9.214;2023-09-18T18:18:04;21.20;91.50
40816;DHT22;26535;48.788;9.214;2023-09-18T18:20:42;21.20;91.50
40816;DHT22;26535;48.788;9.214;2023-09-18T18:23:16;21.20;91.50
40816;DHT22;26535;48.788;9.214;2023-09-18T18:25:44;21.20;91.70
40816;DHT22;26535;48.788;9.214;2023-09-18T18:28:13;21.00;91.80
40816;DHT22;26535;48.788;9.214;2023-09-18T18:30:39;20.90;92.10
40816;DHT22;26535;48.788;9.214;2023-09-18T18:33:10;20.80;92.10
40816;DHT22;26535;48.788;9.214;2023-09-18T18:35:38;20.80;92.10
40816;DHT22;26535;48.788;9.214;2023-09-18T18:38:04;20.90;92.00
40816;DHT22;26535;48.788;9.214;2023-09-18T18:40:33;20.90;91.90
40816;DHT22;26535;48.788;9.214;2023-09-18T18:43:01;20.90;92.00
40816;DHT22;26535;48.788;9.214;2023-09-18T18:45:31;20.90;92.10
40816;DHT22;26535;48.788;9.214;2023-09-18T18:47:57;20.80;92.20
40816;DHT22;26535;48.788;9.214;2023-09-18T18:50:37;20.80;92.30
40816;DHT22;26535;48.788;9.214;2023-09-18T18:53:04;20.80;92.20
40816;DHT22;26535;48.788;9.214;2023-09-18T18:55:39;20.80;92.20
40816;DHT22;26535;48.788;9.214;2023-09-18T18:58:32;20.90;92.10
40816;DHT22;26535;48.788;9.214;2023-09-18T19:01:11;20.90;92.00
40816;DHT22;26535;48.788;9.214;2023-09-18T19:03:46;20.90;92.10
40816;DHT22;26535;48.788;9.214;2023-09-18T19:06:24;20.90;92.10
40816;DHT22;26535;48.788;9.214;2023-09-18T19:09:10;20.90;92.10
40816;DHT22;26535;48.788;9.214;2023-09-18T19:11:44;20.80;92.20
40816;DHT22;26535;48.788;9.214;2023-09-18T19:14:26;20.80;92.20
40816;DHT22;26535;48.788;9.214;2023-09-18T19:16:53;20.90;92.20
40816;DHT22;26535;48.788;9.214;2023-09-18T19:19:31;20.80;92.10
40816;DHT22;26535;48.788;9.214;2023-09-18T19:22:05;20.80;91.80
40816;DHT22;26535;48.788;9.214;2023-09-18T19:24:36;20.80;92.40
40816;DHT22;26535;48.788;9.214;2023-09-18T19:30:10;20.70;93.10
40816;DHT22;26535;48.788;9.214;2023-09-18T19:32:42;20.60;93.70
40816;DHT22;26535;48.788;9.214;2023-09-18T19:35:08;20.50;94.20
40816;DHT22;26535;48.788;9.214;2023-09-18T19:37:37;20.30;94.30
40816;DHT22;26535;48.788;9.214;2023-09-18T19:40:18;20.30;94.40
40816;DHT22;26535;48.788;9.214;2023-09-18T19:42:59;20.20;94.50
40816;DHT22;26535;48.788;9.214;2023-09-18T19:45:52;20.10;94.70
40816;DHT22;26535;48.788;9.214;2023-09-18T19:48:20;20.10;95.50
40816;DHT22;26535;48.788;9.214;2023-09-18T19:50:46;20.00;96.10
40816;DHT22;26535;48.788;9.214;2023-09-18T19:56:13;19.80;94.90
40816;DHT22;26535;48.788;9.214;2023-09-18T19:58:41;19.80;92.00
40816;DHT22;26535;48.788;9.214;2023-09-18T20:01:18;19.80;92.40
40816;DHT22;26535;48.788;9.214;2023-09-18T20:03:43;19.80;93.10
40816;DHT22;26535;48.788;9.214;2023-09-18T20:06:09;19.80;93.80
40816;DHT22;26535;48.788;9.214;2023-09-18T20:08:41;19.70;93.00
40816;DHT22;26535;48.788;9.214;2023-09-18T20:11:17;19.70;93.60
40816;DHT22;26535;48.788;9.214;2023-09-18T20:13:46;19.70;92.90
40816;DHT22;26535;48.788;9.214;2023-09-18T20:16:13;19.60;93.40
40816;DHT22;26535;48.788;9.214;2023-09-18T20:18:44;19.50;94.30
40816;DHT22;26535;48.788;9.214;2023-09-18T20:21:19;19.30;94.90
40816;DHT22;26535;48.788;9.214;2023-09-18T20:23:49;19.10;95.30
40816;DHT22;26535;48.788;9.214;2023-09-18T20:26:14;19.00;95.70
40816;DHT22;26535;48.788;9.214;2023-09-18T20:28:43;18.80;95.70
40816;DHT22;26535;48.788;9.214;2023-09-18T20:31:21;18.70;95.40
40816;DHT22;26535;48.788;9.214;2023-09-18T20:33:49;18.60;96.10
40816;DHT22;26535;48.788;9.214;2023-09-18T20:36:30;18.60;96.40
40816;DHT22;26535;48.788;9.214;2023-09-18T20:39:20;18.60;96.00
40816;DHT22;26535;48.788;9.214;2023-09-18T20:41:51;18.50;96.10
40816;DHT22;26535;48.788;9.214;2023-09-18T20:44:21;18.50;96.00
40816;DHT22;26535;48.788;9.214;2023-09-18T20:46:53;18.60;95.90
40816;DHT22;26535;48.788;9.214;2023-09-18T20:50:13;18.60;95.90
40816;DHT22;26535;48.788;9.214;2023-09-18T20:55:49;18.60;95.60
40816;DHT22;26535;48.788;9.214;2023-09-18T20:58:19;18.50;96.10
40816;DHT22;26535;48.788;9.214;2023-09-18T21:05:04;18.50;96.20
40816;DHT22;26535;48.788;9.214;2023-09-18T21:07:35;18.50;96.10
40816;DHT22;26535;48.788;9.214;2023-09-18T21:10:22;18.40;96.30
40816;DHT22;26535;48.788;9.214;2023-09-18T21:13:10;18.40;96.20
40816;DHT22;26535;48.788;9.214;2023-09-18T21:18:57;18.30;96.40
40816;DHT22;26535;48.788;9.214;2023-09-18T21:21:52;18.30;96.50
40816;DHT22;26535;48.788;9.214;2023-09-18T21:24:32;18.30;96.70
40816;DHT22;26535;48.788;9.214;2023-09-18T21:26:59;18.20;96.80
40816;DHT22;26535;48.788;9.214;2023-09-18T21:29:34;18.20;97.00
40816;DHT22;26535;48.788;9.214;2023-09-18T21:32:00;18.10;97.30
40816;DHT22;26535;48.788;9.214;2023-09-18T21:34:37;18.20;97.30
40816;DHT22;26535;48.788;9.214;2023-09-18T21:37:06;18.20;97.50
40816;DHT22;26535;48.788;9.214;2023-09-18T21:42:30;18.10;97.80
40816;DHT22;26535;48.788;9.214;2023-09-18T21:44:56;18.10;97.70
40816;DHT22;26535;48.788;9.214;2023-09-18T21:50:25;18.20;97.30
40816;DHT22;26535;48.788;9.214;2023-09-18T21:53:19;18.30;96.90
40816;DHT22;26535;48.788;9.214;2023-09-18T21:55:45;18.40;96.70
40816;DHT22;26535;48.788;9.214;2023-09-18T21:59:10;18.30;96.70
40816;DHT22;26535;48.788;9.214;2023-09-18T22:01:37;18.40;96.70
40816;DHT22;26535;48.788;9.214;2023-09-18T22:04:09;18.40;96.50
40816;DHT22;26535;48.788;9.214;2023-09-18T22:07:10;18.40;96.20
40816;DHT22;26535;48.788;9.214;2023-09-18T22:10:07;18.50;96.10
40816;DHT22;26535;48.788;9.214;2023-09-18T22:12:47;18.40;96.40
40816;DHT22;26535;48.788;9.214;2023-09-18T22:15:41;18.50;96.30
40816;DHT22;26535;48.788;9.214;2023-09-18T22:18:16;18.40;96.50
40816;DHT22;26535;48.788;9.214;2023-09-18T22:20:46;18.40;96.70
40816;DHT22;26535;48.788;9.214;2023-09-18T22:23:12;18.30;96.80
40816;DHT22;26535;48.788;9.214;2023-09-18T22:25:39;18.40;96.90
40816;DHT22;26535;48.788;9.214;2023-09-18T22:28:09;18.30;97.00
40816;DHT22;26535;48.788;9.214;2023-09-18T22:30:47;18.30;97.00
40816;DHT22;26535;48.788;9.214;2023-09-18T22:33:16;18.30;97.00
40816;DHT22;26535;48.788;9.214;2023-09-18T22:35:42;18.30;97.10
40816;DHT22;26535;48.788;9.214;2023-09-18T22:56:25;18.50;96.90
40816;DHT22;26535;48.788;9.214;2023-09-18T23:02:29;18.50;97.10
40816;DHT22;26535;48.788;9.214;2023-09-18T23:05:04;18.60;97.00
40816;DHT22;26535;48.788;9.214;2023-09-18T23:07:30;18.60;97.00
40816;DHT22;26535;48.788;9.214;2023-09-18T23:10:32;18.60;97.00
40816;DHT22;26535;48.788;9.214;2023-09-18T23:13:06;18.60;97.10
40816;DHT22;26535;48.788;9.214;2023-09-18T23:16:03;18.60;97.20
40816;DHT22;26535;48.788;9.214;2023-09-18T23:18:35;18.60;97.20
40816;DHT22;26535;48.788;9.214;2023-09-18T23:21:06;18.60;97.30